sensor_id;sensor_type;location;lat;lon;timestamp;pressure;altitude;pressure_sealevel;temperature;humidity
22025;BME280;11176;51.448;6.650;2023-05-08T00:01:57;42391.97;;;-141.29;100.00
22025;BME280;11176;51.448;6.650;2023-05-08T00:04:24;42401.94;;;-141.29;100.00
22025;BME280;11176;51.448;6.650;2023-05-08T00:06:50;42393.97;;;-141.29;100.00
22025;BME280;11176;51.448;6.650;2023-05-08T00:09:19;42433.91;;;-141.29;100.00
22025;BME280;11176;51.448;6.650;2023-05-08T00:11:46;42437.88;;;-141.29;100.00
22025;BME280;11176;51.448;6.650;2023-05-08T00:14:13;42469.84;;;-141.29;100.00
22025;BME280;11176;51.448;6.650;2023-05-08T00:16:40;42471.84;;;-141.29;100.00
22025;BME280;11176;51.448;6.650;2023-05-08T00:19:06;42457.84;;;-141.29;100.00
22025;BME280;11176;51.448;6.650;2023-05-08T00:21:34;42501.78;;;-141.29;100.00
22025;BME280;11176;51.448;6.650;2023-05-08T00:24:00;42485.81;;;-141.29;100.00
22025;BME280;11176;51.448;6.650;2023-05-08T00:26:27;42493.78;;;-141.29;100.00
22025;BME280;11176;51.448;6.650;2023-05-08T00:28:53;42505.78;;;-141.29;100.00
22025;BME280;11176;51.448;6.650;2023-05-08T00:31:19;42527.75;;;-141.29;100.00
22025;BME280;11176;51.448;6.650;2023-05-08T00:33:46;42505.78;;;-141.29;100.00
22025;BME280;11176;51.448;6.650;2023-05-08T00:36:13;42529.75;;;-141.29;100.00
22025;BME280;11176;51.448;6.650;2023-05-08T00:38:41;42529.75;;;-141.29;100.00
22025;BME280;11176;51.448;6.650;2023-05-08T00:41:07;42521.75;;;-141.29;100.00
22025;BME280;11176;51.448;6.650;2023-05-08T00:43:34;42529.75;;;-141.29;100.00
22025;BME280;11176;51.448;6.650;2023-05-08T00:46:02;42541.72;;;-141.29;100.00
22025;BME280;11176;51.448;6.650;2023-05-08T00:48:33;42537.72;;;-141.29;100.00
22025;BME280;11176;51.448;6.650;2023-05-08T00:51:01;42553.69;;;-141.29;100.00
22025;BME280;11176;51.448;6.650;2023-05-08T00:53:32;42563.69;;;-141.29;100.00
22025;BME280;11176;51.448;6.650;2023-05-08T00:55:58;42557.69;;;-141.29;100.00
22025;BME280;11176;51.448;6.650;2023-05-08T00:58:26;42573.66;;;-141.29;100.00
22025;BME280;11176;51.448;6.650;2023-05-08T01:00:54;42565.69;;;-141.29;100.00
22025;BME280;11176;51.448;6.650;2023-05-08T01:03:22;42575.66;;;-141.29;100.00
22025;BME280;11176;51.448;6.650;2023-05-08T01:05:49;42563.69;;;-141.29;100.00
22025;BME280;11176;51.448;6.650;2023-05-08T01:08:16;42573.66;;;-141.29;100.00
22025;BME280;11176;51.448;6.650;2023-05-08T01:11:03;42579.66;;;-141.29;100.00
22025;BME280;11176;51.448;6.650;2023-05-08T01:16:14;42563.69;;;-141.29;100.00
22025;BME280;11176;51.448;6.650;2023-05-08T01:18:46;42589.63;;;-141.29;100.00
22025;BME280;11176;51.448;6.650;2023-05-08T01:24:28;42573.66;;;-141.29;100.00
22025;BME280;11176;51.448;6.650;2023-05-08T01:27:16;42593.63;;;-141.29;100.00
22025;BME280;11176;51.448;6.650;2023-05-08T01:32:41;42577.66;;;-141.29;100.00
22025;BME280;11176;51.448;6.650;2023-05-08T01:35:25;42593.63;;;-141.29;100.00
22025;BME280;11176;51.448;6.650;2023-05-08T01:43:13;42593.63;;;-141.29;100.00
22025;BME280;11176;51.448;6.650;2023-05-08T01:45:45;42581.66;;;-141.29;100.00
22025;BME280;11176;51.448;6.650;2023-05-08T01:48:18;42577.66;;;-141.29;100.00
22025;BME280;11176;51.448;6.650;2023-05-08T01:50:51;42589.63;;;-141.29;100.00
22025;BME280;11176;51.448;6.650;2023-05-08T01:53:23;42591.63;;;-141.29;100.00
22025;BME280;11176;51.448;6.650;2023-05-08T01:55:56;42601.63;;;-141.29;100.00
22025;BME280;11176;51.448;6.650;2023-05-08T01:58:23;42561.69;;;-141.29;100.00
22025;BME280;11176;51.448;6.650;2023-05-08T02:00:51;42567.69;;;-141.29;100.00
22025;BME280;11176;51.448;6.650;2023-05-08T02:03:20;42549.72;;;-141.29;100.00
22025;BME280;11176;51.448;6.650;2023-05-08T02:05:50;42577.66;;;-141.29;100.00
22025;BME280;11176;51.448;6.650;2023-05-08T02:08:20;42565.69;;;-141.29;100.00
22025;BME280;11176;51.448;6.650;2023-05-08T02:10:49;42557.69;;;-141.29;100.00
22025;BME280;11176;51.448;6.650;2023-05-08T02:13:18;42539.72;;;-141.29;100.00
22025;BME280;11176;51.448;6.650;2023-05-08T02:15:48;42545.72;;;-141.29;100.00
22025;BME280;11176;51.448;6.650;2023-05-08T02:18:19;42537.72;;;-141.29;100.00
22025;BME280;11176;51.448;6.650;2023-05-08T02:20:49;42541.72;;;-141.29;100.00
22025;BME280;11176;51.448;6.650;2023-05-08T02:23:17;42539.72;;;-141.29;100.00
22025;BME280;11176;51.448;6.650;2023-05-08T02:25:45;42549.72;;;-141.29;100.00
22025;BME280;11176;51.448;6.650;2023-05-08T02:28:14;42565.69;;;-141.29;100.00
22025;BME280;11176;51.448;6.650;2023-05-08T02:30:42;42551.69;;;-141.29;100.00
22025;BME280;11176;51.448;6.650;2023-05-08T02:33:10;42541.72;;;-141.29;100.00
22025;BME280;11176;51.448;6.650;2023-05-08T02:35:39;42521.75;;;-141.29;100.00
22025;BME280;11176;51.448;6.650;2023-05-08T02:38:07;42537.72;;;-141.29;100.00
22025;BME280;11176;51.448;6.650;2023-05-08T02:40:38;42541.72;;;-141.29;100.00
22025;BME280;11176;51.448;6.650;2023-05-08T02:43:06;42545.72;;;-141.29;100.00
22025;BME280;11176;51.448;6.650;2023-05-08T02:45:45;42525.75;;;-141.29;100.00
22025;BME280;11176;51.448;6.650;2023-05-08T02:48:21;42543.72;;;-141.29;100.00
22025;BME280;11176;51.448;6.650;2023-05-08T02:50:57;42541.72;;;-141.29;100.00
22025;BME280;11176;51.448;6.650;2023-05-08T02:53:35;42553.69;;;-141.29;100.00
22025;BME280;11176;51.448;6.650;2023-05-08T02:56:14;42545.72;;;-141.29;100.00
22025;BME280;11176;51.448;6.650;2023-05-08T02:58:49;42559.69;;;-141.29;100.00
22025;BME280;11176;51.448;6.650;2023-05-08T03:01:32;42531.72;;;-141.29;100.00
22025;BME280;11176;51.448;6.650;2023-05-08T03:04:08;42565.69;;;-141.29;100.00
22025;BME280;11176;51.448;6.650;2023-05-08T03:06:40;42529.75;;;-141.29;100.00
22025;BME280;11176;51.448;6.650;2023-05-08T03:09:14;42553.69;;;-141.29;100.00
22025;BME280;11176;51.448;6.650;2023-05-08T03:11:43;42561.69;;;-141.29;100.00
22025;BME280;11176;51.448;6.650;2023-05-08T03:14:15;42559.69;;;-141.29;100.00
22025;BME280;11176;51.448;6.650;2023-05-08T03:16:45;42573.66;;;-141.29;100.00
22025;BME280;11176;51.448;6.650;2023-05-08T03:19:21;42551.69;;;-141.29;100.00
22025;BME280;11176;51.448;6.650;2023-05-08T03:21:50;42565.69;;;-141.29;100.00
22025;BME280;11176;51.448;6.650;2023-05-08T03:24:21;42553.69;;;-141.29;100.00
22025;BME280;11176;51.448;6.650;2023-05-08T03:26:50;42573.66;;;-141.29;100.00
22025;BME280;11176;51.448;6.650;2023-05-08T03:29:17;42565.69;;;-141.29;100.00
22025;BME280;11176;51.448;6.650;2023-05-08T03:31:45;42541.72;;;-141.29;100.00
22025;BME280;11176;51.448;6.650;2023-05-08T03:34:13;42565.69;;;-141.29;100.00
22025;BME280;11176;51.448;6.650;2023-05-08T03:36:41;42561.69;;;-141.29;100.00
22025;BME280;11176;51.448;6.650;2023-05-08T03:39:08;42553.69;;;-141.29;100.00
22025;BME280;11176;51.448;6.650;2023-05-08T03:41:35;42541.72;;;-141.29;100.00
22025;BME280;11176;51.448;6.650;2023-05-08T03:44:02;42581.66;;;-141.29;100.00
22025;BME280;11176;51.448;6.650;2023-05-08T03:46:33;42581.66;;;-141.29;100.00
22025;BME280;11176;51.448;6.650;2023-05-08T03:49:03;42593.63;;;-141.29;100.00
22025;BME280;11176;51.448;6.650;2023-05-08T03:51:30;42593.63;;;-141.29;100.00
22025;BME280;11176;51.448;6.650;2023-05-08T03:53:57;42605.63;;;-141.29;100.00
22025;BME280;11176;51.448;6.650;2023-05-08T03:56:24;42607.59;;;-141.29;100.00
22025;BME280;11176;51.448;6.650;2023-05-08T03:58:56;42609.59;;;-141.29;100.00
22025;BME280;11176;51.448;6.650;2023-05-08T04:01:31;42619.59;;;-141.29;100.00
22025;BME280;11176;51.448;6.650;2023-05-08T04:04:29;42617.59;;;-141.29;100.00
22025;BME280;11176;51.448;6.650;2023-05-08T04:07:05;42627.56;;;-141.29;100.00
22025;BME280;11176;51.448;6.650;2023-05-08T04:10:01;42625.59;;;-141.29;100.00
22025;BME280;11176;51.448;6.650;2023-05-08T04:12:48;42617.59;;;-141.29;100.00
22025;BME280;11176;51.448;6.650;2023-05-08T04:15:23;42647.53;;;-141.29;100.00
22025;BME280;11176;51.448;6.650;2023-05-08T04:17:58;42635.56;;;-141.29;100.00
22025;BME280;11176;51.448;6.650;2023-05-08T04:20:26;42637.56;;;-141.29;100.00
22025;BME280;11176;51.448;6.650;2023-05-08T04:22:56;42657.53;;;-141.29;100.00
22025;BME280;11176;51.448;6.650;2023-05-08T04:25:24;42685.47;;;-141.29;100.00
22025;BME280;11176;51.448;6.650;2023-05-08T04:27:51;42661.53;;;-141.29;100.00
22025;BME280;11176;51.448;6.650;2023-05-08T04:30:20;42673.50;;;-141.29;100.00
22025;BME280;11176;51.448;6.650;2023-05-08T04:32:48;42687.47;;;-141.29;100.00
22025;BME280;11176;51.448;6.650;2023-05-08T04:35:15;42669.50;;;-141.29;100.00
22025;BME280;11176;51.448;6.650;2023-05-08T04:37:42;42661.53;;;-141.29;100.00
22025;BME280;11176;51.448;6.650;2023-05-08T04:40:10;42661.53;;;-141.29;100.00
22025;BME280;11176;51.448;6.650;2023-05-08T04:42:38;42683.50;;;-141.29;100.00
22025;BME280;11176;51.448;6.650;2023-05-08T04:45:08;42681.50;;;-141.29;100.00
22025;BME280;11176;51.448;6.650;2023-05-08T04:47:35;42683.50;;;-141.29;100.00
22025;BME280;11176;51.448;6.650;2023-05-08T04:50:02;42679.50;;;-141.29;100.00
22025;BME280;11176;51.448;6.650;2023-05-08T04:52:30;42695.47;;;-141.29;100.00
22025;BME280;11176;51.448;6.650;2023-05-08T04:54:57;42689.47;;;-141.29;100.00
22025;BME280;11176;51.448;6.650;2023-05-08T04:57:24;42689.47;;;-141.29;100.00
22025;BME280;11176;51.448;6.650;2023-05-08T04:59:50;42695.47;;;-141.29;100.00
22025;BME280;11176;51.448;6.650;2023-05-08T05:02:17;42677.50;;;-141.29;100.00
22025;BME280;11176;51.448;6.650;2023-05-08T05:04:45;42683.50;;;-141.29;100.00
22025;BME280;11176;51.448;6.650;2023-05-08T05:07:12;42693.47;;;-141.29;100.00
22025;BME280;11176;51.448;6.650;2023-05-08T05:09:39;42675.50;;;-141.29;100.00
22025;BME280;11176;51.448;6.650;2023-05-08T05:12:06;42661.53;;;-141.29;100.00
22025;BME280;11176;51.448;6.650;2023-05-08T05:14:34;42689.47;;;-141.29;100.00
22025;BME280;11176;51.448;6.650;2023-05-08T05:17:00;42675.50;;;-141.29;100.00
22025;BME280;11176;51.448;6.650;2023-05-08T05:19:27;42687.47;;;-141.29;100.00
22025;BME280;11176;51.448;6.650;2023-05-08T05:21:54;42685.47;;;-141.29;100.00
22025;BME280;11176;51.448;6.650;2023-05-08T05:24:21;42709.44;;;-141.29;100.00
22025;BME280;11176;51.448;6.650;2023-05-08T05:26:48;42721.44;;;-141.29;100.00
22025;BME280;11176;51.448;6.650;2023-05-08T05:29:14;42709.44;;;-141.29;100.00
22025;BME280;11176;51.448;6.650;2023-05-08T05:31:41;42723.44;;;-141.29;100.00
22025;BME280;11176;51.448;6.650;2023-05-08T05:34:08;42737.41;;;-141.29;100.00
22025;BME280;11176;51.448;6.650;2023-05-08T05:36:35;42755.38;;;-141.29;100.00
22025;BME280;11176;51.448;6.650;2023-05-08T05:39:01;42773.34;;;-141.29;100.00
22025;BME280;11176;51.448;6.650;2023-05-08T05:41:29;42769.34;;;-141.29;100.00
22025;BME280;11176;51.448;6.650;2023-05-08T05:43:56;42789.31;;;-141.29;100.00
22025;BME280;11176;51.448;6.650;2023-05-08T05:46:22;42773.34;;;-141.29;100.00
22025;BME280;11176;51.448;6.650;2023-05-08T05:48:57;42767.34;;;-141.29;100.00
22025;BME280;11176;51.448;6.650;2023-05-08T05:51:25;42753.38;;;-141.29;100.00
22025;BME280;11176;51.448;6.650;2023-05-08T05:53:53;42771.34;;;-141.29;100.00
22025;BME280;11176;51.448;6.650;2023-05-08T05:56:21;42753.38;;;-141.29;100.00
22025;BME280;11176;51.448;6.650;2023-05-08T05:58:48;42739.41;;;-141.29;100.00
22025;BME280;11176;51.448;6.650;2023-05-08T06:01:15;42753.38;;;-141.29;100.00
22025;BME280;11176;51.448;6.650;2023-05-08T06:03:41;42765.34;;;-141.29;100.00
22025;BME280;11176;51.448;6.650;2023-05-08T06:06:08;42753.38;;;-141.29;100.00
22025;BME280;11176;51.448;6.650;2023-05-08T06:08:35;42749.38;;;-141.29;100.00
22025;BME280;11176;51.448;6.650;2023-05-08T06:11:01;42739.41;;;-141.29;100.00
22025;BME280;11176;51.448;6.650;2023-05-08T06:13:28;42737.41;;;-141.29;100.00
22025;BME280;11176;51.448;6.650;2023-05-08T06:15:55;42735.41;;;-141.29;100.00
22025;BME280;11176;51.448;6.650;2023-05-08T06:18:23;42757.38;;;-141.29;100.00
22025;BME280;11176;51.448;6.650;2023-05-08T06:20:55;42749.38;;;-141.29;100.00
22025;BME280;11176;51.448;6.650;2023-05-08T06:23:22;42737.41;;;-141.29;100.00
22025;BME280;11176;51.448;6.650;2023-05-08T06:25:48;42725.41;;;-141.29;100.00
22025;BME280;11176;51.448;6.650;2023-05-08T06:28:15;42717.44;;;-141.29;100.00
22025;BME280;11176;51.448;6.650;2023-05-08T06:30:42;42725.41;;;-141.29;100.00
22025;BME280;11176;51.448;6.650;2023-05-08T06:33:08;42721.44;;;-141.29;100.00
22025;BME280;11176;51.448;6.650;2023-05-08T06:35:36;42717.44;;;-141.29;100.00
22025;BME280;11176;51.448;6.650;2023-05-08T06:38:02;42697.47;;;-141.29;100.00
22025;BME280;11176;51.448;6.650;2023-05-08T06:40:29;42711.44;;;-141.29;100.00
22025;BME280;11176;51.448;6.650;2023-05-08T06:42:55;42741.41;;;-141.29;100.00
22025;BME280;11176;51.448;6.650;2023-05-08T06:45:22;42693.47;;;-141.29;100.00
22025;BME280;11176;51.448;6.650;2023-05-08T06:47:48;42725.41;;;-141.29;100.00
22025;BME280;11176;51.448;6.650;2023-05-08T06:50:15;42725.41;;;-141.29;100.00
22025;BME280;11176;51.448;6.650;2023-05-08T06:52:42;42713.44;;;-141.29;100.00
22025;BME280;11176;51.448;6.650;2023-05-08T06:55:09;42689.47;;;-141.29;100.00
22025;BME280;11176;51.448;6.650;2023-05-08T06:57:35;42701.47;;;-141.29;100.00
22025;BME280;11176;51.448;6.650;2023-05-08T07:00:02;42709.44;;;-141.29;100.00
22025;BME280;11176;51.448;6.650;2023-05-08T07:02:29;42709.44;;;-141.29;100.00
22025;BME280;11176;51.448;6.650;2023-05-08T07:04:55;42697.47;;;-141.29;100.00
22025;BME280;11176;51.448;6.650;2023-05-08T07:07:22;42697.47;;;-141.29;100.00
22025;BME280;11176;51.448;6.650;2023-05-08T07:09:49;42689.47;;;-141.29;100.00
22025;BME280;11176;51.448;6.650;2023-05-08T07:12:15;42675.50;;;-141.29;100.00
22025;BME280;11176;51.448;6.650;2023-05-08T07:14:42;42673.50;;;-141.29;100.00
22025;BME280;11176;51.448;6.650;2023-05-08T07:17:08;42677.50;;;-141.29;100.00
22025;BME280;11176;51.448;6.650;2023-05-08T07:19:35;42685.47;;;-141.29;100.00
22025;BME280;11176;51.448;6.650;2023-05-08T07:22:02;42665.50;;;-141.29;100.00
22025;BME280;11176;51.448;6.650;2023-05-08T07:24:29;42669.50;;;-141.29;100.00
22025;BME280;11176;51.448;6.650;2023-05-08T07:26:55;42673.50;;;-141.29;100.00
22025;BME280;11176;51.448;6.650;2023-05-08T07:29:22;42661.53;;;-141.29;100.00
22025;BME280;11176;51.448;6.650;2023-05-08T07:31:48;42669.50;;;-141.29;100.00
22025;BME280;11176;51.448;6.650;2023-05-08T07:34:17;42661.53;;;-141.29;100.00
22025;BME280;11176;51.448;6.650;2023-05-08T07:36:43;42669.50;;;-141.29;100.00
22025;BME280;11176;51.448;6.650;2023-05-08T07:39:13;42657.53;;;-141.29;100.00
22025;BME280;11176;51.448;6.650;2023-05-08T07:41:40;42655.53;;;-141.29;100.00
22025;BME280;11176;51.448;6.650;2023-05-08T07:44:06;42667.50;;;-141.29;100.00
22025;BME280;11176;51.448;6.650;2023-05-08T07:46:33;42659.53;;;-141.29;100.00
22025;BME280;11176;51.448;6.650;2023-05-08T07:49:00;42681.50;;;-141.29;100.00
22025;BME280;11176;51.448;6.650;2023-05-08T07:51:26;42669.50;;;-141.29;100.00
22025;BME280;11176;51.448;6.650;2023-05-08T07:53:53;42681.50;;;-141.29;100.00
22025;BME280;11176;51.448;6.650;2023-05-08T07:56:20;42665.50;;;-141.29;100.00
22025;BME280;11176;51.448;6.650;2023-05-08T07:58:50;42643.56;;;-141.29;100.00
22025;BME280;11176;51.448;6.650;2023-05-08T08:01:16;42655.53;;;-141.29;100.00
22025;BME280;11176;51.448;6.650;2023-05-08T08:03:44;42645.56;;;-141.29;98.69
22025;BME280;11176;51.448;6.650;2023-05-08T08:06:11;42633.56;;;-141.29;98.17
22025;BME280;11176;51.448;6.650;2023-05-08T08:08:38;42613.59;;;-141.29;97.68
22025;BME280;11176;51.448;6.650;2023-05-08T08:11:05;42603.63;;;-141.29;97.37
22025;BME280;11176;51.448;6.650;2023-05-08T08:13:32;42605.63;;;-141.29;97.53
22025;BME280;11176;51.448;6.650;2023-05-08T08:15:59;42605.63;;;-141.29;97.40
22025;BME280;11176;51.448;6.650;2023-05-08T08:18:26;42613.59;;;-141.29;97.52
22025;BME280;11176;51.448;6.650;2023-05-08T08:20:52;42601.63;;;-141.29;97.25
22025;BME280;11176;51.448;6.650;2023-05-08T08:23:19;42617.59;;;-141.29;97.29
22025;BME280;11176;51.448;6.650;2023-05-08T08:25:45;42593.63;;;-141.29;96.50
22025;BME280;11176;51.448;6.650;2023-05-08T08:28:12;42591.63;;;-141.29;96.38
22025;BME280;11176;51.448;6.650;2023-05-08T08:30:38;42563.69;;;-141.29;96.34
22025;BME280;11176;51.448;6.650;2023-05-08T08:33:05;42567.69;;;-141.29;95.64
22025;BME280;11176;51.448;6.650;2023-05-08T08:35:32;42563.69;;;-141.29;94.33
22025;BME280;11176;51.448;6.650;2023-05-08T08:37:58;42565.69;;;-141.29;94.70
22025;BME280;11176;51.448;6.650;2023-05-08T08:40:25;42577.66;;;-141.29;94.87
22025;BME280;11176;51.448;6.650;2023-05-08T08:42:53;42567.69;;;-141.29;95.60
22025;BME280;11176;51.448;6.650;2023-05-08T08:45:20;42593.63;;;-141.29;94.79
22025;BME280;11176;51.448;6.650;2023-05-08T08:47:47;42559.69;;;-141.29;93.75
22025;BME280;11176;51.448;6.650;2023-05-08T08:50:14;42547.72;;;-141.29;93.00
22025;BME280;11176;51.448;6.650;2023-05-08T08:53:20;42549.72;;;-141.29;93.11
22025;BME280;11176;51.448;6.650;2023-05-08T08:55:43;42553.69;;;-141.29;92.51
22025;BME280;11176;51.448;6.650;2023-05-08T08:58:20;42513.75;;;-141.29;90.61
22025;BME280;11176;51.448;6.650;2023-05-08T09:00:48;42499.78;;;-141.29;90.69
22025;BME280;11176;51.448;6.650;2023-05-08T09:03:15;42473.84;;;-141.29;89.23
22025;BME280;11176;51.448;6.650;2023-05-08T09:05:42;42459.84;;;-141.29;88.71
22025;BME280;11176;51.448;6.650;2023-05-08T09:08:10;42473.84;;;-141.29;89.11
22025;BME280;11176;51.448;6.650;2023-05-08T09:10:38;42477.81;;;-141.29;89.46
22025;BME280;11176;51.448;6.650;2023-05-08T09:13:04;42457.84;;;-141.29;89.84
22025;BME280;11176;51.448;6.650;2023-05-08T09:15:32;42455.88;;;-141.29;88.51
22025;BME280;11176;51.448;6.650;2023-05-08T09:18:00;42439.88;;;-141.29;86.99
22025;BME280;11176;51.448;6.650;2023-05-08T09:20:28;42433.91;;;-141.29;86.80
22025;BME280;11176;51.448;6.650;2023-05-08T09:22:56;42437.88;;;-141.29;86.90
22025;BME280;11176;51.448;6.650;2023-05-08T09:25:23;42425.91;;;-141.29;85.42
22025;BME280;11176;51.448;6.650;2023-05-08T09:27:49;42421.91;;;-141.29;85.00
22025;BME280;11176;51.448;6.650;2023-05-08T09:30:16;42407.94;;;-141.29;84.29
22025;BME280;11176;51.448;6.650;2023-05-08T09:32:43;42385.97;;;-141.29;83.83
22025;BME280;11176;51.448;6.650;2023-05-08T09:35:11;42381.97;;;-141.29;84.10
22025;BME280;11176;51.448;6.650;2023-05-08T09:37:40;42381.97;;;-141.29;82.46
22025;BME280;11176;51.448;6.650;2023-05-08T09:40:20;42370.00;;;-141.29;82.00
22025;BME280;11176;51.448;6.650;2023-05-08T09:42:48;42362.03;;;-141.29;81.80
22025;BME280;11176;51.448;6.650;2023-05-08T09:45:26;42354.03;;;-141.29;82.03
22025;BME280;11176;51.448;6.650;2023-05-08T09:47:53;42352.03;;;-141.29;82.12
22025;BME280;11176;51.448;6.650;2023-05-08T09:50:20;42356.03;;;-141.29;81.21
22025;BME280;11176;51.448;6.650;2023-05-08T09:52:48;42334.06;;;-141.29;80.87
22025;BME280;11176;51.448;6.650;2023-05-08T09:55:16;42334.06;;;-141.29;81.02
22025;BME280;11176;51.448;6.650;2023-05-08T09:57:57;42336.06;;;-141.29;80.99
22025;BME280;11176;51.448;6.650;2023-05-08T10:00:29;42318.09;;;-141.29;81.04
22025;BME280;11176;51.448;6.650;2023-05-08T10:03:01;42338.06;;;-141.29;80.89
22025;BME280;11176;51.448;6.650;2023-05-08T10:05:30;42350.03;;;-141.29;81.48
22025;BME280;11176;51.448;6.650;2023-05-08T10:08:20;42338.06;;;-141.29;80.47
22025;BME280;11176;51.448;6.650;2023-05-08T10:10:46;42302.13;;;-141.29;81.70
22025;BME280;11176;51.448;6.650;2023-05-08T10:13:12;42342.06;;;-141.29;81.58
22025;BME280;11176;51.448;6.650;2023-05-08T10:15:41;42334.06;;;-141.29;80.95
22025;BME280;11176;51.448;6.650;2023-05-08T10:18:08;42322.09;;;-141.29;81.35
22025;BME280;11176;51.448;6.650;2023-05-08T10:20:41;42312.09;;;-141.29;76.99
22025;BME280;11176;51.448;6.650;2023-05-08T10:23:09;42306.13;;;-141.29;78.07
22025;BME280;11176;51.448;6.650;2023-05-08T10:25:44;42342.06;;;-141.29;78.82
22025;BME280;11176;51.448;6.650;2023-05-08T10:28:23;42318.09;;;-141.29;79.38
22025;BME280;11176;51.448;6.650;2023-05-08T10:30:54;42300.13;;;-141.29;78.14
22025;BME280;11176;51.448;6.650;2023-05-08T10:33:25;42326.09;;;-141.29;78.50
22025;BME280;11176;51.448;6.650;2023-05-08T10:35:57;42342.06;;;-141.29;78.39
22025;BME280;11176;51.448;6.650;2023-05-08T10:38:24;42306.13;;;-141.29;76.60
22025;BME280;11176;51.448;6.650;2023-05-08T10:40:52;42306.13;;;-141.29;75.78
22025;BME280;11176;51.448;6.650;2023-05-08T10:43:27;42318.09;;;-141.29;75.38
22025;BME280;11176;51.448;6.650;2023-05-08T10:45:55;42302.13;;;-141.29;75.85
22025;BME280;11176;51.448;6.650;2023-05-08T10:48:30;42298.13;;;-141.29;74.88
22025;BME280;11176;51.448;6.650;2023-05-08T10:51:13;42306.13;;;-141.29;74.30
22025;BME280;11176;51.448;6.650;2023-05-08T10:53:51;42334.06;;;-141.29;74.60
22025;BME280;11176;51.448;6.650;2023-05-08T10:56:25;42318.09;;;-141.29;74.86
22025;BME280;11176;51.448;6.650;2023-05-08T10:58:56;42274.16;;;-141.29;71.10
22025;BME280;11176;51.448;6.650;2023-05-08T11:01:24;42262.19;;;-141.29;71.00
22025;BME280;11176;51.448;6.650;2023-05-08T11:03:51;42270.19;;;-141.29;71.04
22025;BME280;11176;51.448;6.650;2023-05-08T11:06:41;42222.25;;;-141.29;65.52
22025;BME280;11176;51.448;6.650;2023-05-08T11:09:13;42238.22;;;-141.29;67.37
22025;BME280;11176;51.448;6.650;2023-05-08T11:11:41;42262.19;;;-141.29;68.53
22025;BME280;11176;51.448;6.650;2023-05-08T11:14:15;42244.22;;;-141.29;68.53
22025;BME280;11176;51.448;6.650;2023-05-08T11:19:29;42250.22;;;-141.29;66.92
22025;BME280;11176;51.448;6.650;2023-05-08T11:22:15;42214.28;;;-141.29;61.45
22025;BME280;11176;51.448;6.650;2023-05-08T11:25:29;42210.28;;;-141.29;59.60
22025;BME280;11176;51.448;6.650;2023-05-08T11:30:24;42228.25;;;-141.29;59.02
22025;BME280;11176;51.448;6.650;2023-05-08T11:32:56;42244.22;;;-141.29;57.68
22025;BME280;11176;51.448;6.650;2023-05-08T11:36:16;42230.25;;;-141.29;56.14
22025;BME280;11176;51.448;6.650;2023-05-08T11:38:35;42226.25;;;-141.29;55.04
22025;BME280;11176;51.448;6.650;2023-05-08T11:41:08;42246.22;;;-141.29;54.73
22025;BME280;11176;51.448;6.650;2023-05-08T11:46:42;42190.31;;;-141.29;50.29
22025;BME280;11176;51.448;6.650;2023-05-08T11:49:14;42106.47;;;-141.29;47.09
22025;BME280;11176;51.448;6.650;2023-05-08T11:51:50;42092.50;;;-141.29;47.63
22025;BME280;11176;51.448;6.650;2023-05-08T11:54:21;41990.66;;;-141.29;44.75
22025;BME280;11176;51.448;6.650;2023-05-08T11:56:48;41972.69;;;-141.29;44.06
22025;BME280;11176;51.448;6.650;2023-05-08T11:59:16;41918.81;;;-141.29;43.16
22025;BME280;11176;51.448;6.650;2023-05-08T12:01:43;41846.94;;;-141.29;41.91
22025;BME280;11176;51.448;6.650;2023-05-08T12:04:25;41747.13;;;-141.29;40.16
22025;BME280;11176;51.448;6.650;2023-05-08T12:06:56;41715.19;;;-141.29;40.26
22025;BME280;11176;51.448;6.650;2023-05-08T12:09:23;41615.38;;;-141.29;38.10
22025;BME280;11176;51.448;6.650;2023-05-08T12:11:55;41597.41;;;-141.29;38.96
22025;BME280;11176;51.448;6.650;2023-05-08T12:14:22;41539.53;;;-141.29;39.56
22025;BME280;11176;51.448;6.650;2023-05-08T12:16:49;41485.63;;;-141.29;38.89
22025;BME280;11176;51.448;6.650;2023-05-08T12:19:16;41449.69;;;-141.29;39.50
22025;BME280;11176;51.448;6.650;2023-05-08T12:21:46;41315.97;;;-141.29;38.21
22025;BME280;11176;51.448;6.650;2023-05-08T12:24:16;41315.97;;;-141.29;39.71
22025;BME280;11176;51.448;6.650;2023-05-08T12:26:48;41264.06;;;-141.29;39.14
22025;BME280;11176;51.448;6.650;2023-05-08T12:29:18;41220.16;;;-141.29;40.28
22025;BME280;11176;51.448;6.650;2023-05-08T12:31:45;41198.19;;;-141.29;41.74
22025;BME280;11176;51.448;6.650;2023-05-08T12:34:13;41172.25;;;-141.29;42.26
22025;BME280;11176;51.448;6.650;2023-05-08T12:36:39;41196.19;;;-141.29;43.76
22025;BME280;11176;51.448;6.650;2023-05-08T12:39:13;41232.13;;;-141.29;45.31
22025;BME280;11176;51.448;6.650;2023-05-08T12:41:50;41180.22;;;-141.29;44.05
22025;BME280;11176;51.448;6.650;2023-05-08T12:44:24;41142.31;;;-141.29;44.38
22025;BME280;11176;51.448;6.650;2023-05-08T12:46:52;41196.19;;;-141.29;45.22
22025;BME280;11176;51.448;6.650;2023-05-08T12:49:26;41242.09;;;-141.29;46.16
22025;BME280;11176;51.448;6.650;2023-05-08T12:52:08;41198.19;;;-141.29;44.37
22025;BME280;11176;51.448;6.650;2023-05-08T12:54:36;41246.09;;;-141.29;45.46
22025;BME280;11176;51.448;6.650;2023-05-08T12:59:37;41280.03;;;-141.29;45.92
22025;BME280;11176;51.448;6.650;2023-05-08T13:02:11;41272.06;;;-141.29;44.45
22025;BME280;11176;51.448;6.650;2023-05-08T13:04:38;41292.00;;;-141.29;43.59
22025;BME280;11176;51.448;6.650;2023-05-08T13:07:04;41262.06;;;-141.29;41.76
22025;BME280;11176;51.448;6.650;2023-05-08T13:09:31;41258.06;;;-141.29;40.36
22025;BME280;11176;51.448;6.650;2023-05-08T13:11:58;41292.00;;;-141.29;40.93